createdAt,value
2019-05-15T00:01:21.709Z,99.90
2019-05-15T00:03:50.889Z,99.90
2019-05-15T00:06:19.995Z,99.90
2019-05-15T00:08:49.214Z,99.90
2019-05-15T00:11:39.013Z,99.90
2019-05-15T00:14:28.846Z,99.90
2019-05-15T00:16:58.679Z,99.90
2019-05-15T00:19:28.454Z,99.90
2019-05-15T00:21:58.552Z,99.90
2019-05-15T00:24:28.752Z,99.90
2019-05-15T00:26:58.851Z,99.90
2019-05-15T00:29:28.916Z,99.90
2019-05-15T00:31:58.916Z,99.90
2019-05-15T00:34:28.579Z,99.90
2019-05-15T00:36:58.398Z,99.90
2019-05-15T00:39:28.394Z,99.90
2019-05-15T00:41:59.009Z,99.90
2019-05-15T00:44:28.205Z,99.90
2019-05-15T00:46:58.237Z,99.90
2019-05-15T00:49:28.957Z,99.90
2019-05-15T00:51:59.154Z,99.90
2019-05-15T00:54:28.391Z,99.90
2019-05-15T00:56:57.947Z,99.90
2019-05-15T00:59:29.997Z,99.90
2019-05-15T01:01:59.432Z,99.90
2019-05-15T01:04:28.588Z,99.90
2019-05-15T01:06:58.896Z,99.90
2019-05-15T01:09:29.214Z,99.90
2019-05-15T01:11:58.719Z,99.90
2019-05-15T01:14:49.026Z,99.90
2019-05-15T01:17:18.482Z,99.90
2019-05-15T01:19:48.222Z,99.90
2019-05-15T01:22:19.418Z,99.90
2019-05-15T01:25:08.640Z,99.90
2019-05-15T01:27:38.867Z,99.90
2019-05-15T01:30:28.603Z,99.90
2019-05-15T01:33:08.420Z,99.90
2019-05-15T01:35:38.239Z,99.90
2019-05-15T01:38:08.219Z,99.90
2019-05-15T01:40:38.488Z,99.90
2019-05-15T01:43:09.197Z,99.90
2019-05-15T01:45:39.446Z,99.90
2019-05-15T01:48:08.762Z,99.90
2019-05-15T01:50:38.773Z,99.90
2019-05-15T01:53:08.516Z,99.90
2019-05-15T01:55:39.498Z,99.90
2019-05-15T01:58:09.337Z,99.90
2019-05-15T02:00:39.228Z,99.90
2019-05-15T02:03:09.704Z,99.90
2019-05-15T02:05:39.572Z,99.90
2019-05-15T02:08:08.718Z,99.90
2019-05-15T02:10:39.275Z,99.90
2019-05-15T02:13:08.908Z,99.90
2019-05-15T02:15:39.491Z,99.90
2019-05-15T02:18:08.828Z,99.90
2019-05-15T02:20:38.958Z,99.90
2019-05-15T02:23:11.706Z,99.90
2019-05-15T02:25:39.697Z,99.90
2019-05-15T02:28:09.458Z,99.90
2019-05-15T02:30:40.730Z,99.90
2019-05-15T02:33:11.029Z,99.90
2019-05-15T02:35:40.325Z,99.90
2019-05-15T02:38:10.439Z,99.90
2019-05-15T02:40:40.967Z,99.90
2019-05-15T02:43:29.959Z,99.90
2019-05-15T02:46:00.512Z,99.90
2019-05-15T02:48:29.783Z,99.90
2019-05-15T02:50:59.089Z,99.90
2019-05-15T02:53:30.059Z,99.90
2019-05-15T02:56:00.310Z,99.90
2019-05-15T02:58:56.014Z,99.90
2019-05-15T03:01:28.656Z,99.90
2019-05-15T03:03:59.661Z,99.90
2019-05-15T03:06:29.840Z,99.90
2019-05-15T03:09:18.923Z,99.90
2019-05-15T03:11:49.830Z,99.90
2019-05-15T03:14:21.476Z,99.90
2019-05-15T03:16:49.973Z,99.90
2019-05-15T03:19:39.258Z,99.90
2019-05-15T03:22:09.728Z,99.90
2019-05-15T03:24:59.268Z,99.90
2019-05-15T03:27:50.386Z,99.90
2019-05-15T03:30:21.865Z,99.90
2019-05-15T03:33:17.409Z,99.90
2019-05-15T03:35:43.315Z,99.90
2019-05-15T03:38:30.302Z,99.90
2019-05-15T03:40:59.806Z,99.90
2019-05-15T03:43:29.401Z,99.90
2019-05-15T03:46:02.101Z,99.90
2019-05-15T03:48:31.341Z,99.90
2019-05-15T03:51:00.648Z,99.90
2019-05-15T03:53:30.182Z,99.90
2019-05-15T03:55:59.585Z,99.90
2019-05-15T03:58:29.040Z,99.90
2019-05-15T04:01:00.324Z,99.90
2019-05-15T04:03:30.108Z,99.90
2019-05-15T04:06:00.534Z,99.90
2019-05-15T04:08:50.693Z,99.90
2019-05-15T04:11:20.444Z,99.90
2019-05-15T04:13:50.297Z,99.90
2019-05-15T04:16:19.422Z,99.90
2019-05-15T04:18:49.266Z,99.90
2019-05-15T04:21:41.379Z,99.90
2019-05-15T04:24:09.497Z,99.90
2019-05-15T04:26:59.837Z,99.90
2019-05-15T04:29:29.204Z,99.90
2019-05-15T04:32:05.847Z,99.90
2019-05-15T04:34:32.407Z,99.90
2019-05-15T04:37:24.991Z,99.90
2019-05-15T04:40:19.321Z,99.90
2019-05-15T04:42:50.053Z,99.90
2019-05-15T04:45:39.168Z,99.90
2019-05-15T04:48:10.059Z,99.90
2019-05-15T04:50:43.256Z,99.90
2019-05-15T04:53:12.421Z,99.90
2019-05-15T04:55:41.728Z,99.90
2019-05-15T04:58:10.909Z,99.90
2019-05-15T05:00:54.448Z,99.90
2019-05-15T05:03:23.629Z,99.90
2019-05-15T05:05:52.679Z,99.90
2019-05-15T05:08:29.059Z,99.90
2019-05-15T05:10:54.445Z,99.90
2019-05-15T05:13:23.645Z,99.90
2019-05-15T05:16:11.888Z,99.90
2019-05-15T05:18:41.894Z,99.90
2019-05-15T05:21:11.083Z,99.90
2019-05-15T05:23:40.122Z,99.90
2019-05-15T05:26:11.230Z,99.90
2019-05-15T05:29:01.455Z,99.90
2019-05-15T05:31:29.945Z,99.90
2019-05-15T05:34:19.400Z,99.90
2019-05-15T05:36:48.756Z,99.90
2019-05-15T05:39:19.888Z,99.90
2019-05-15T05:42:07.925Z,99.90
2019-05-15T05:44:45.011Z,99.90
2019-05-15T05:47:18.173Z,99.90
2019-05-15T05:49:48.654Z,99.90
2019-05-15T05:52:18.577Z,99.90
2019-05-15T05:54:49.049Z,99.90
2019-05-15T05:57:38.249Z,99.90
2019-05-15T06:00:09.390Z,99.90
2019-05-15T06:02:46.861Z,99.90
2019-05-15T06:05:28.773Z,99.90
2019-05-15T06:08:01.655Z,99.90
2019-05-15T06:10:30.925Z,99.90
2019-05-15T06:12:59.963Z,99.90
2019-05-15T06:15:51.234Z,99.90
2019-05-15T06:18:20.388Z,99.90
2019-05-15T06:21:09.253Z,99.90
2019-05-15T06:23:45.515Z,99.90
2019-05-15T06:26:34.552Z,99.90
2019-05-15T06:29:22.979Z,99.90
2019-05-15T06:31:55.323Z,99.90
2019-05-15T06:34:43.737Z,99.90
2019-05-15T06:37:16.277Z,99.90
2019-05-15T06:40:10.557Z,99.90
2019-05-15T06:42:48.368Z,99.90
2019-05-15T06:45:31.804Z,99.90
2019-05-15T06:48:01.618Z,99.90
2019-05-15T06:50:50.222Z,99.90
2019-05-15T06:53:43.096Z,99.90
2019-05-15T06:56:38.659Z,99.90
2019-05-15T06:59:14.906Z,99.90
2019-05-15T07:01:48.131Z,99.90
2019-05-15T07:04:18.208Z,99.90
2019-05-15T07:06:48.868Z,99.90
2019-05-15T07:09:18.366Z,99.90
2019-05-15T07:11:48.293Z,99.90
2019-05-15T07:14:18.084Z,99.90
2019-05-15T07:16:48.881Z,99.90
2019-05-15T07:19:20.572Z,99.90
2019-05-15T07:21:49.760Z,99.90
2019-05-15T07:24:24.521Z,99.90
2019-05-15T07:27:14.836Z,99.90
2019-05-15T07:29:50.295Z,99.90
2019-05-15T07:32:21.263Z,99.90
2019-05-15T07:34:51.882Z,99.90
2019-05-15T07:37:58.479Z,99.90
2019-05-15T07:40:21.053Z,99.90
2019-05-15T07:42:50.247Z,99.90
2019-05-15T07:45:19.880Z,99.90
2019-05-15T07:48:01.352Z,99.90
2019-05-15T07:50:51.435Z,99.90
2019-05-15T07:53:20.700Z,99.90
2019-05-15T07:56:24.113Z,99.90
2019-05-15T07:59:25.126Z,99.90
2019-05-15T08:05:24.358Z,99.90
2019-05-15T08:07:53.864Z,99.90
2019-05-15T08:10:34.881Z,99.90
2019-05-15T08:13:23.218Z,99.90
2019-05-15T08:15:58.550Z,99.90
2019-05-15T08:19:09.160Z,99.90
2019-05-15T08:21:58.113Z,99.90
2019-05-15T08:24:29.859Z,99.90
2019-05-15T08:27:18.922Z,99.90
2019-05-15T08:29:49.916Z,99.90
2019-05-15T08:32:38.883Z,99.90
2019-05-15T08:35:18.907Z,99.90
2019-05-15T08:38:00.968Z,99.90
2019-05-15T08:40:41.141Z,99.90
2019-05-15T08:43:31.200Z,99.90
2019-05-15T08:48:58.291Z,99.90
2019-05-15T08:51:42.384Z,99.90
2019-05-15T08:54:43.645Z,99.90
2019-05-15T08:57:20.342Z,99.90
2019-05-15T09:00:10.596Z,99.90
2019-05-15T09:09:19.304Z,99.90
2019-05-15T09:12:10.190Z,99.90
2019-05-15T09:14:59.357Z,99.90
2019-05-15T09:17:28.448Z,99.90
2019-05-15T09:20:03.153Z,99.90
2019-05-15T09:22:29.140Z,99.90
2019-05-15T09:24:58.987Z,99.90
2019-05-15T09:27:31.351Z,99.90
2019-05-15T09:30:25.764Z,99.90
2019-05-15T09:33:01.769Z,99.90
2019-05-15T09:36:11.265Z,99.90
2019-05-15T09:38:58.577Z,99.90
2019-05-15T09:41:38.050Z,99.60
2019-05-15T09:44:07.975Z,98.40
2019-05-15T09:46:58.473Z,99.60
2019-05-15T09:49:40.910Z,97.50
2019-05-15T09:52:10.112Z,98.10
2019-05-15T09:54:39.535Z,97.50
2019-05-15T09:57:10.703Z,97.00
2019-05-15T09:59:40.014Z,97.40
2019-05-15T10:02:09.674Z,97.40
2019-05-15T10:04:44.057Z,97.30
2019-05-15T10:07:13.476Z,96.00
2019-05-15T10:09:42.644Z,97.90
2019-05-15T10:12:12.088Z,98.10
2019-05-15T10:14:41.383Z,97.10
2019-05-15T10:17:11.105Z,96.80
2019-05-15T10:19:40.766Z,97.40
2019-05-15T10:22:10.142Z,96.20
2019-05-15T10:24:58.964Z,96.00
2019-05-15T10:27:28.807Z,95.00
2019-05-15T10:29:58.800Z,95.10
2019-05-15T10:32:28.998Z,95.60
2019-05-15T10:34:58.690Z,95.40
2019-05-15T10:37:28.432Z,95.90
2019-05-15T10:39:58.512Z,95.70
2019-05-15T10:42:29.003Z,94.90
2019-05-15T10:44:58.871Z,94.30
2019-05-15T10:47:28.891Z,95.00
2019-05-15T10:50:00.161Z,95.00
2019-05-15T10:52:29.816Z,92.50
2019-05-15T10:55:00.955Z,92.50
2019-05-15T10:57:30.022Z,93.80
2019-05-15T10:59:59.207Z,91.40
2019-05-15T11:02:28.972Z,90.50
2019-05-15T11:04:59.060Z,90.10
2019-05-15T11:07:28.506Z,89.40
2019-05-15T11:09:58.235Z,86.00
2019-05-15T11:12:29.229Z,83.70
2019-05-15T11:15:01.762Z,80.90
2019-05-15T11:17:31.604Z,77.60
2019-05-15T11:20:01.200Z,77.20
2019-05-15T11:22:30.604Z,72.50
2019-05-15T11:24:59.868Z,69.20
2019-05-15T11:27:31.292Z,70.40
2019-05-15T11:30:00.008Z,66.80
2019-05-15T11:32:30.172Z,69.00
2019-05-15T11:34:59.525Z,67.30
2019-05-15T11:37:28.995Z,63.70
2019-05-15T11:39:59.006Z,62.30
2019-05-15T11:42:28.980Z,65.00
2019-05-15T11:44:58.513Z,64.50
2019-05-15T11:47:28.366Z,58.60
2019-05-15T11:49:58.473Z,58.30
2019-05-15T11:53:29.024Z,56.40
2019-05-15T11:56:19.194Z,54.00
2019-05-15T11:59:04.935Z,55.20
2019-05-15T12:02:22.235Z,55.10
2019-05-15T12:04:51.415Z,53.80
2019-05-15T12:07:20.720Z,49.50
2019-05-15T12:09:58.096Z,51.50
2019-05-15T12:12:31.802Z,48.60
2019-05-15T12:14:58.241Z,48.10
2019-05-15T12:17:28.427Z,49.00
2019-05-15T12:20:05.316Z,47.80
2019-05-15T12:22:29.019Z,48.10
2019-05-15T12:25:00.438Z,48.50
2019-05-15T12:27:29.295Z,47.50
2019-05-15T12:29:59.929Z,46.20
2019-05-15T12:32:36.447Z,44.10
2019-05-15T12:35:00.538Z,45.30
2019-05-15T12:37:30.115Z,44.70
2019-05-15T13:00:15.031Z,39.60
2019-05-15T13:02:43.949Z,39.90
2019-05-15T13:05:14.656Z,38.90
2019-05-15T13:08:03.070Z,39.30
2019-05-15T13:10:32.468Z,39.40
2019-05-15T13:13:05.312Z,38.80
2019-05-15T13:15:40.437Z,39.00
2019-05-15T13:18:13.800Z,39.30
2019-05-15T13:21:07.899Z,38.50
2019-05-15T13:23:56.092Z,37.90
2019-05-15T13:26:31.950Z,36.70
2019-05-15T13:29:01.142Z,37.20
2019-05-15T13:31:30.470Z,38.00
2019-05-15T13:34:00.164Z,37.60
2019-05-15T13:36:41.338Z,37.30
2019-05-15T13:39:10.507Z,37.30
2019-05-15T13:41:39.695Z,37.90
2019-05-15T13:44:09.136Z,37.70
2019-05-15T13:46:38.388Z,37.40
2019-05-15T13:49:09.371Z,37.40
2019-05-15T13:51:38.648Z,37.10
2019-05-15T13:54:08.844Z,36.20
2019-05-15T13:56:38.236Z,35.70
2019-05-15T13:59:12.115Z,36.20
2019-05-15T14:01:49.146Z,36.60
2019-05-15T14:04:18.525Z,36.30
2019-05-15T14:06:50.594Z,36.50
2019-05-15T14:09:19.790Z,35.70
2019-05-15T14:11:51.985Z,36.30
2019-05-15T14:14:41.982Z,35.40
2019-05-15T14:17:14.486Z,34.70
2019-05-15T14:19:43.887Z,35.20
2019-05-15T14:22:41.624Z,33.40
2019-05-15T14:25:11.018Z,34.20
2019-05-15T14:27:40.612Z,34.80
2019-05-15T14:30:10.539Z,34.60
2019-05-15T14:32:39.935Z,34.10
2019-05-15T14:35:09.477Z,33.70
2019-05-15T14:37:38.656Z,33.70
2019-05-15T14:40:09.516Z,34.10
2019-05-15T14:42:39.805Z,34.60
2019-05-15T14:45:09.723Z,34.10
2019-05-15T14:47:39.123Z,33.00
2019-05-15T14:50:10.094Z,33.90
2019-05-15T14:52:39.643Z,34.40
2019-05-15T14:55:09.179Z,34.30
2019-05-15T14:57:39.287Z,34.10
2019-05-15T15:00:09.461Z,33.90
2019-05-15T15:02:39.227Z,33.90
2019-05-15T15:05:09.137Z,33.30
2019-05-15T15:07:38.690Z,33.90
2019-05-15T15:10:08.316Z,33.50
2019-05-15T15:12:39.652Z,32.90
2019-05-15T15:15:10.321Z,34.20
2019-05-15T15:17:39.713Z,32.90
2019-05-15T15:20:09.483Z,33.40
2019-05-15T15:22:39.440Z,32.90
2019-05-15T15:25:10.283Z,33.30
2019-05-15T15:27:39.474Z,33.20
2019-05-15T15:30:09.484Z,33.40
2019-05-15T15:32:38.963Z,33.80
2019-05-15T15:35:09.275Z,32.90
2019-05-15T15:37:38.994Z,33.00
2019-05-15T15:40:08.604Z,33.10
2019-05-15T15:42:39.492Z,33.00
2019-05-15T15:45:09.432Z,32.90
2019-05-15T15:47:39.258Z,32.50
2019-05-15T15:50:09.535Z,32.10
2019-05-15T15:52:39.160Z,32.90
2019-05-15T15:55:09.065Z,32.50
2019-05-15T15:57:39.719Z,33.00
2019-05-15T16:00:10.380Z,33.60
2019-05-15T16:02:40.947Z,33.60
2019-05-15T16:05:10.713Z,33.70
2019-05-15T16:07:39.799Z,33.00
2019-05-15T16:10:09.327Z,34.20
2019-05-15T16:12:39.075Z,34.70
2019-05-15T16:15:09.557Z,34.30
2019-05-15T16:17:38.915Z,34.50
2019-05-15T16:20:09.167Z,35.10
2019-05-15T16:22:38.618Z,36.00
2019-05-15T16:25:09.766Z,36.00
2019-05-15T16:27:39.244Z,35.10
2019-05-15T16:30:28.212Z,36.00
2019-05-15T16:32:58.539Z,37.00
2019-05-15T16:35:48.656Z,36.20
2019-05-15T16:38:38.805Z,36.40
2019-05-15T16:41:08.998Z,37.50
2019-05-15T16:44:08.580Z,36.30
2019-05-15T16:47:13.469Z,36.80
2019-05-15T16:49:42.793Z,38.10
2019-05-15T16:52:20.375Z,39.20
2019-05-15T16:54:59.886Z,39.40
2019-05-15T16:57:29.003Z,39.20
2019-05-15T16:59:58.739Z,39.60
2019-05-15T17:02:32.291Z,40.40
2019-05-15T17:05:01.383Z,40.00
2019-05-15T17:07:30.671Z,40.40
2019-05-15T17:09:59.771Z,41.80
2019-05-15T17:12:28.900Z,41.70
2019-05-15T17:15:17.931Z,41.70
2019-05-15T17:17:50.346Z,42.30
2019-05-15T17:20:19.556Z,43.20
2019-05-15T17:22:48.709Z,44.90
2019-05-15T17:25:38.191Z,45.20
2019-05-15T17:28:28.817Z,46.30
2019-05-15T17:30:58.394Z,46.40
2019-05-15T17:33:28.978Z,46.80
2019-05-15T17:35:58.199Z,47.40
2019-05-15T17:38:28.665Z,48.30
2019-05-15T17:40:58.437Z,49.10
2019-05-15T17:43:28.682Z,50.20
2019-05-15T17:45:58.330Z,50.40
2019-05-15T17:48:28.904Z,50.80
2019-05-15T17:50:59.015Z,50.50
2019-05-15T17:53:28.905Z,49.90
2019-05-15T17:55:58.663Z,50.10
2019-05-15T17:58:28.883Z,49.90
2019-05-15T18:01:19.156Z,49.00
2019-05-15T18:03:48.614Z,50.30
2019-05-15T18:06:18.087Z,50.90
2019-05-15T18:08:48.549Z,51.50
2019-05-15T18:11:18.722Z,52.00
2019-05-15T18:13:48.713Z,51.80
2019-05-15T18:16:18.299Z,52.20
2019-05-15T18:18:47.897Z,52.70
2019-05-15T18:21:18.383Z,52.80
2019-05-15T18:23:48.666Z,52.60
2019-05-15T18:26:18.411Z,53.40
2019-05-15T18:28:48.889Z,53.60
2019-05-15T18:31:18.270Z,55.70
2019-05-15T18:33:53.669Z,55.90
2019-05-15T18:36:18.256Z,56.40
2019-05-15T18:38:48.211Z,57.20
2019-05-15T18:41:18.374Z,57.70
2019-05-15T18:43:48.416Z,58.50
2019-05-15T18:46:18.339Z,58.10
2019-05-15T18:48:48.608Z,58.70
2019-05-15T18:51:17.837Z,60.30
2019-05-15T18:53:48.186Z,62.30
2019-05-15T18:56:18.663Z,63.10
2019-05-15T18:58:48.454Z,64.00
2019-05-15T19:01:17.929Z,64.70
2019-05-15T19:03:47.044Z,66.00
2019-05-15T19:06:18.302Z,66.50
2019-05-15T19:08:47.032Z,68.00
2019-05-15T19:11:18.180Z,69.90
2019-05-15T19:13:48.134Z,71.80
2019-05-15T19:16:17.303Z,74.80
2019-05-15T19:18:47.924Z,77.80
2019-05-15T19:21:17.185Z,81.00
2019-05-15T19:23:47.852Z,83.30
2019-05-15T19:26:18.251Z,88.40
2019-05-15T19:28:48.571Z,91.10
2019-05-15T19:31:26.563Z,91.90
2019-05-15T19:34:08.591Z,93.70
2019-05-15T19:36:38.269Z,94.50
2019-05-15T19:39:58.467Z,95.90
2019-05-15T19:42:48.828Z,96.30
2019-05-15T19:45:17.941Z,97.60
2019-05-15T19:47:47.838Z,98.40
2019-05-15T19:50:18.027Z,99.20
2019-05-15T19:52:48.227Z,99.90
2019-05-15T19:55:18.015Z,99.90
2019-05-15T19:58:08.796Z,99.90
2019-05-15T20:00:51.529Z,99.90
2019-05-15T20:03:24.474Z,99.90
2019-05-15T20:05:53.492Z,99.90
2019-05-15T20:08:22.560Z,99.90
2019-05-15T20:10:51.863Z,99.90
2019-05-15T20:13:42.132Z,99.90
2019-05-15T20:16:11.136Z,99.90
2019-05-15T20:18:40.297Z,99.90
2019-05-15T20:21:09.456Z,99.90
2019-05-15T20:23:38.564Z,99.90
2019-05-15T20:26:08.419Z,99.90
2019-05-15T20:28:39.276Z,99.90
2019-05-15T20:31:08.548Z,99.90
2019-05-15T20:34:15.933Z,99.90
2019-05-15T20:36:48.758Z,99.90
2019-05-15T20:39:38.657Z,99.90
2019-05-15T20:42:08.883Z,99.90
2019-05-15T20:44:38.119Z,99.90
2019-05-15T20:47:08.293Z,99.90
2019-05-15T20:49:37.879Z,99.90
2019-05-15T20:52:07.051Z,99.90
2019-05-15T20:54:38.632Z,99.90
2019-05-15T20:57:08.875Z,99.90
2019-05-15T20:59:38.769Z,99.90
2019-05-15T21:02:28.990Z,99.90
2019-05-15T21:05:00.662Z,99.90
2019-05-15T21:07:38.152Z,99.90
2019-05-15T21:10:00.964Z,99.90
2019-05-15T21:15:35.720Z,99.90
2019-05-15T21:31:49.915Z,99.90
2019-05-15T21:34:33.390Z,99.90
2019-05-15T21:37:27.534Z,99.90
2019-05-15T21:40:16.835Z,99.90
2019-05-15T21:42:48.878Z,99.90
2019-05-15T21:45:37.610Z,99.90
2019-05-15T21:48:09.019Z,99.90
2019-05-15T21:50:38.837Z,99.90
2019-05-15T21:53:08.070Z,99.90
2019-05-15T21:55:38.839Z,99.90
2019-05-15T21:58:08.724Z,99.90
2019-05-15T22:00:41.411Z,99.90
2019-05-15T22:03:10.550Z,99.90
2019-05-15T22:05:39.724Z,99.90
2019-05-15T22:08:08.855Z,99.90
2019-05-15T22:10:38.848Z,99.90
2019-05-15T22:13:08.111Z,99.90
2019-05-15T22:15:37.357Z,99.90
2019-05-15T22:18:08.679Z,99.90
2019-05-15T22:20:38.773Z,99.90
2019-05-15T22:23:08.277Z,99.90
2019-05-15T22:25:59.634Z,99.90
2019-05-15T22:28:48.974Z,99.90
2019-05-15T22:31:18.263Z,99.90
2019-05-15T22:33:48.000Z,99.90
2019-05-15T22:36:18.873Z,99.90
2019-05-15T23:03:43.815Z,99.90
2019-05-15T23:06:12.919Z,99.90
2019-05-15T23:08:42.079Z,99.90
2019-05-15T23:11:11.103Z,99.90
2019-05-15T23:13:40.115Z,99.90
2019-05-15T23:16:09.216Z,99.90
2019-05-15T23:18:38.331Z,99.90
2019-05-15T23:21:08.848Z,99.90
2019-05-15T23:23:38.251Z,99.90
2019-05-15T23:26:07.322Z,99.90
2019-05-15T23:28:38.521Z,99.90
2019-05-15T23:31:08.293Z,99.90
2019-05-15T23:33:38.713Z,99.90
2019-05-15T23:36:08.036Z,99.90
2019-05-15T23:38:38.464Z,99.90
2019-05-15T23:41:08.234Z,99.90
2019-05-15T23:43:38.908Z,99.90
2019-05-15T23:46:08.199Z,99.90
2019-05-15T23:48:38.245Z,99.90
2019-05-15T23:51:27.932Z,99.90
2019-05-15T23:53:58.741Z,99.90
2019-05-15T23:56:29.124Z,99.90
2019-05-15T23:58:58.386Z,99.90
